Time;durP1;ratioP1;P1;durP2;ratioP2;P2;SDS_P1;SDS_P2;PMS_P1;PMS_P2;Temp;Humidity;BMP_temperature;BMP_pressure;BME280_temperature;BME280_humidity;BME280_pressure;Samples;Min_cycle;Max_cycle;Signal;HPM_P1;HPM_P2
2023/10/11 00:03:17;;;;;;;7.72;3.95;;;18.30;93.20;;;;;;5036053;28;20190;-76
2023/10/11 00:05:45;;;;;;;12.27;4.35;;;18.30;93.20;;;;;;5035902;28;20030;-76
2023/10/11 00:08:13;;;;;;;10.73;4.22;;;18.40;93.30;;;;;;5036347;28;20128;-76
2023/10/11 00:10:55;;;;;;;8.30;3.95;;;18.30;93.20;;;;;;5035809;28;20124;-76
2023/10/11 00:13:23;;;;;;;9.98;3.80;;;18.30;93.30;;;;;;5035687;28;20029;-76
2023/10/11 00:15:51;;;;;;;15.35;4.82;;;18.30;93.50;;;;;;5035975;28;20029;-76
2023/10/11 00:18:26;;;;;;;8.02;4.00;;;18.30;93.60;;;;;;5035750;28;20041;-76
2023/10/11 00:20:56;;;;;;;9.88;4.35;;;18.20;93.70;;;;;;5035591;28;20041;-76
2023/10/11 00:23:24;;;;;;;8.02;4.63;;;18.20;93.80;;;;;;5036083;28;20389;-76
2023/10/11 00:25:52;;;;;;;12.85;5.20;;;18.20;93.90;;;;;;5035639;28;20032;-76
2023/10/11 00:28:23;;;;;;;8.88;4.32;;;18.20;93.90;;;;;;5035375;28;20360;-77
2023/10/11 00:30:53;;;;;;;10.30;4.68;;;18.10;93.90;;;;;;5035432;28;20037;-77
2023/10/11 00:33:19;;;;;;;11.13;4.82;;;18.10;93.70;;;;;;5035300;28;20537;-77
2023/10/11 00:35:49;;;;;;;9.85;4.57;;;18.10;93.70;;;;;;5035102;28;20129;-76
2023/10/11 00:38:28;;;;;;;7.65;4.70;;;18.10;93.70;;;;;;5035143;28;20080;-76
2023/10/11 00:43:35;;;;;;;6.88;4.25;;;18.10;93.60;;;;;;5035301;28;20435;-77
2023/10/11 00:46:02;;;;;;;;;;;18.10;93.60;;;;;;5034218;28;20033;-76
2023/10/11 00:48:30;;;;;;;9.63;4.47;;;18.10;93.60;;;;;;5035091;28;20388;-77
2023/10/11 00:50:56;;;;;;;8.00;4.35;;;18.10;93.60;;;;;;5035374;28;20037;-77
2023/10/11 00:53:26;;;;;;;11.00;4.65;;;18.10;93.50;;;;;;5034944;28;20048;-77
2023/10/11 00:55:55;;;;;;;9.43;5.13;;;18.00;93.50;;;;;;5035419;28;20413;-77
2023/10/11 00:58:22;;;;;;;8.65;4.40;;;18.00;93.50;;;;;;5035448;28;20033;-77
2023/10/11 01:00:49;;;;;;;8.85;4.97;;;18.00;93.50;;;;;;5033174;28;20029;-77
2023/10/11 01:03:14;;;;;;;7.97;4.40;;;18.00;93.50;;;;;;5033929;28;20037;-77
2023/10/11 01:05:44;;;;;;;9.38;5.35;;;18.10;93.50;;;;;;5034770;28;20051;-76
2023/10/11 01:08:11;;;;;;;13.57;5.15;;;18.00;93.50;;;;;;5033572;28;20494;-77
2023/10/11 01:10:38;;;;;;;8.98;4.45;;;18.00;93.40;;;;;;5033660;28;20033;-76
2023/10/11 01:13:04;;;;;;;8.38;4.45;;;18.00;93.40;;;;;;5034558;28;20072;-76
2023/10/11 01:15:30;;;;;;;10.68;4.80;;;18.00;93.40;;;;;;5034399;28;20030;-77
2023/10/11 01:17:56;;;;;;;9.95;4.90;;;18.00;93.40;;;;;;5033934;28;20076;-76
2023/10/11 01:20:22;;;;;;;8.60;4.80;;;18.00;93.50;;;;;;5034491;28;20099;-77
2023/10/11 01:22:48;;;;;;;10.77;4.70;;;18.00;93.60;;;;;;5034369;28;20466;-76
2023/10/11 01:25:20;;;;;;;8.48;4.10;;;18.00;93.60;;;;;;5034084;28;20505;-76
2023/10/11 01:27:47;;;;;;;8.40;4.43;;;18.00;93.50;;;;;;5034477;28;20065;-76
2023/10/11 01:30:13;;;;;;;11.15;4.60;;;18.00;93.50;;;;;;5034573;28;20108;-76
2023/10/11 01:32:41;;;;;;;10.95;5.00;;;18.00;93.40;;;;;;5034128;28;20394;-76
2023/10/11 01:35:19;;;;;;;9.35;4.05;;;18.00;93.50;;;;;;5033836;28;20163;-76
2023/10/11 01:37:48;;;;;;;7.85;4.75;;;17.90;93.50;;;;;;5034061;28;20094;-76
2023/10/11 01:40:20;;;;;;;7.28;4.20;;;18.00;93.50;;;;;;5034380;28;20034;-77
2023/10/11 01:42:52;;;;;;;9.30;4.40;;;18.00;93.60;;;;;;5034160;28;20522;-76
2023/10/11 01:45:19;;;;;;;7.25;4.35;;;17.90;93.60;;;;;;5034609;28;20386;-76
2023/10/11 01:47:46;;;;;;;9.43;4.82;;;18.00;93.50;;;;;;5032800;28;20029;-75
2023/10/11 01:50:14;;;;;;;7.60;4.65;;;18.00;93.50;;;;;;5033673;28;20108;-76
2023/10/11 01:52:40;;;;;;;9.88;4.30;;;18.00;93.50;;;;;;5033817;28;20179;-76
2023/10/11 01:55:08;;;;;;;10.55;4.78;;;18.00;93.50;;;;;;5034193;28;20040;-76
2023/10/11 01:57:34;;;;;;;9.95;4.53;;;18.00;93.50;;;;;;5034173;28;20029;-76
2023/10/11 02:00:03;;;;;;;9.60;4.72;;;18.00;93.50;;;;;;5034148;28;20476;-76
2023/10/11 02:02:32;;;;;;;13.93;5.18;;;18.00;93.50;;;;;;5034125;28;20042;-76
2023/10/11 02:04:59;;;;;;;8.48;4.85;;;17.90;93.50;;;;;;5033781;28;20033;-76
2023/10/11 02:07:25;;;;;;;8.73;4.50;;;18.00;93.60;;;;;;5034082;28;20033;-76
2023/10/11 02:09:50;;;;;;;7.80;4.03;;;18.00;93.70;;;;;;5032474;28;20029;-77
2023/10/11 02:12:17;;;;;;;13.25;4.97;;;18.00;93.70;;;;;;5033666;28;20029;-76
2023/10/11 02:14:45;;;;;;;7.38;4.30;;;18.00;93.80;;;;;;5032573;28;20037;-75
2023/10/11 02:17:13;;;;;;;8.18;5.10;;;18.00;93.80;;;;;;5032394;28;20136;-76
2023/10/11 02:19:38;;;;;;;9.35;5.20;;;18.00;93.80;;;;;;5033267;28;20571;-75
2023/10/11 02:22:04;;;;;;;9.52;5.03;;;18.00;93.80;;;;;;5033638;28;20034;-76
2023/10/11 02:24:30;;;;;;;14.30;5.30;;;18.00;93.90;;;;;;5033832;28;20087;-76
2023/10/11 02:26:56;;;;;;;10.25;4.70;;;18.00;93.90;;;;;;5033581;28;20034;-75
2023/10/11 02:29:23;;;;;;;9.20;5.40;;;18.00;94.20;;;;;;5036276;28;20160;-76
2023/10/11 02:31:53;;;;;;;10.13;5.00;;;18.00;93.90;;;;;;5038180;28;20037;-75
2023/10/11 02:34:19;;;;;;;11.88;5.20;;;18.10;93.90;;;;;;5037862;28;20033;-75
2023/10/11 02:36:55;;;;;;;7.57;4.78;;;18.00;93.90;;;;;;5036872;28;20365;-75
2023/10/11 02:39:21;;;;;;;9.30;4.80;;;18.00;93.90;;;;;;5037669;28;20045;-75
2023/10/11 02:41:50;;;;;;;10.35;5.07;;;18.00;93.90;;;;;;5037418;28;20048;-75
2023/10/11 02:44:16;;;;;;;7.13;4.85;;;18.10;93.80;;;;;;5037043;28;20030;-75
2023/10/11 02:46:49;;;;;;;8.77;4.75;;;18.10;93.80;;;;;;5037143;28;20537;-75
2023/10/11 02:49:21;;;;;;;12.68;5.82;;;18.10;93.70;;;;;;5037378;28;20030;-75
2023/10/11 02:51:59;;;;;;;12.07;4.65;;;18.10;93.80;;;;;;5037131;28;20073;-76
2023/10/11 02:54:34;;;;;;;7.10;5.00;;;18.00;93.80;;;;;;5037162;28;20033;-75
2023/10/11 02:57:05;;;;;;;8.98;4.78;;;18.00;93.90;;;;;;5037782;28;20037;-75
2023/10/11 02:59:33;;;;;;;9.40;5.55;;;18.00;93.90;;;;;;5037481;28;20022;-75
2023/10/11 03:02:01;;;;;;;6.53;4.28;;;18.00;94.00;;;;;;5036108;28;20033;-75
2023/10/11 03:04:40;;;;;;;9.20;5.03;;;18.00;94.00;;;;;;5037561;28;20091;-75
2023/10/11 03:07:14;;;;;;;11.18;5.18;;;18.00;94.00;;;;;;5037318;28;20025;-75
2023/10/11 03:09:40;;;;;;;9.15;5.07;;;18.00;93.90;;;;;;5037484;28;20033;-75
2023/10/11 03:12:18;;;;;;;9.40;5.40;;;17.90;94.00;;;;;;5036814;28;20029;-75
2023/10/11 03:14:54;;;;;;;13.07;5.18;;;18.00;94.10;;;;;;5037245;28;20466;-75
2023/10/11 03:17:20;;;;;;;10.30;5.43;;;17.90;94.00;;;;;;5037625;28;20089;-75
2023/10/11 03:19:49;;;;;;;12.77;5.28;;;17.90;94.00;;;;;;5035316;28;20037;-75
2023/10/11 03:22:19;;;;;;;10.20;4.97;;;17.90;94.00;;;;;;5035698;28;20382;-75
2023/10/11 03:24:53;;;;;;;16.15;5.47;;;17.90;94.00;;;;;;5037502;28;20041;-76
2023/10/11 03:27:19;;;;;;;11.35;4.90;;;17.90;93.90;;;;;;5037238;28;20437;-75
2023/10/11 03:29:45;;;;;;;11.68;5.70;;;17.90;94.00;;;;;;5036855;28;20091;-75
2023/10/11 03:32:11;;;;;;;10.93;5.25;;;17.80;94.00;;;;;;5036588;28;20029;-75
2023/10/11 03:34:36;;;;;;;12.10;4.82;;;17.80;94.00;;;;;;5036431;28;20029;-75
2023/10/11 03:37:10;;;;;;;8.85;4.72;;;17.80;94.00;;;;;;5036678;28;20060;-75
2023/10/11 03:44:40;;;;;;;10.43;5.32;;;17.80;94.20;;;;;;5037161;28;20115;-75
2023/10/11 03:47:14;;;;;;;9.90;5.20;;;17.80;94.20;;;;;;5036329;28;20039;-75
2023/10/11 03:52:16;;;;;;;12.60;5.72;;;17.70;94.20;;;;;;5035097;28;20040;-75
2023/10/11 03:54:42;;;;;;;10.65;5.30;;;17.70;94.30;;;;;;5036391;28;20454;-76
2023/10/11 03:57:08;;;;;;;12.45;5.47;;;17.70;94.30;;;;;;5036073;28;20029;-75
2023/10/11 03:59:39;;;;;;;10.48;5.93;;;17.70;94.40;;;;;;5035639;28;20107;-75
2023/10/11 04:02:10;;;;;;;9.23;5.45;;;17.70;94.40;;;;;;5036337;28;20377;-75
2023/10/11 04:04:42;;;;;;;8.98;5.18;;;17.60;94.40;;;;;;5034617;28;20029;-75
2023/10/11 04:07:12;;;;;;;10.77;5.90;;;17.60;94.50;;;;;;5035910;28;20032;-75
2023/10/11 04:09:44;;;;;;;9.65;5.80;;;17.60;94.50;;;;;;5036425;28;20060;-76
2023/10/11 04:12:10;;;;;;;10.10;5.15;;;17.60;94.50;;;;;;5036046;28;20049;-76
2023/10/11 04:14:44;;;;;;;11.32;5.13;;;17.60;94.50;;;;;;5035639;28;20080;-76
2023/10/11 04:19:51;;;;;;;14.13;6.35;;;17.60;94.50;;;;;;5036051;28;20108;-76
2023/10/11 04:22:18;;;;;;;12.40;5.50;;;17.50;94.60;;;;;;5035642;28;20040;-76
2023/10/11 04:24:45;;;;;;;10.10;5.57;;;17.50;94.60;;;;;;5035555;28;20029;-76
2023/10/11 04:29:47;;;;;;;13.10;6.18;;;17.50;94.70;;;;;;5034515;28;20025;-75
2023/10/11 04:32:40;;;;;;;11.90;6.03;;;17.50;94.80;;;;;;5034565;28;20029;-76
2023/10/11 04:34:59;;;;;;;12.60;5.40;;;17.40;94.90;;;;;;5034942;28;20087;-76
2023/10/11 04:37:27;;;;;;;11.48;5.63;;;17.40;94.90;;;;;;5034600;28;20034;-75
2023/10/11 04:40:23;;;;;;;14.73;7.18;;;17.40;95.00;;;;;;5035232;28;20053;-75
2023/10/11 04:42:53;;;;;;;9.23;5.57;;;17.40;95.00;;;;;;5034829;28;20090;-75
2023/10/11 04:45:21;;;;;;;10.93;5.95;;;17.40;95.10;;;;;;5035524;28;20056;-76
2023/10/11 04:47:58;;;;;;;8.35;5.72;;;17.40;95.10;;;;;;5035004;28;20459;-75
2023/10/11 04:50:24;;;;;;;11.60;6.13;;;17.40;95.10;;;;;;5034150;28;20034;-76
2023/10/11 04:52:49;;;;;;;12.30;6.18;;;17.40;95.10;;;;;;5035061;28;20068;-75
2023/10/11 04:55:15;;;;;;;10.70;6.35;;;17.40;95.10;;;;;;5035314;28;20072;-75
2023/10/11 04:58:04;;;;;;;12.05;5.75;;;17.40;95.20;;;;;;5033814;28;20029;-76
2023/10/11 05:00:31;;;;;;;11.15;6.82;;;17.40;95.20;;;;;;5034867;28;20116;-75
2023/10/11 05:02:58;;;;;;;12.18;5.88;;;17.30;95.20;;;;;;5035349;28;20386;-75
2023/10/11 05:05:24;;;;;;;10.18;5.72;;;17.30;95.30;;;;;;5035469;28;20033;-75
2023/10/11 05:08:01;;;;;;;9.60;6.28;;;17.30;95.30;;;;;;5035178;28;20079;-75
2023/10/11 05:13:05;;;;;;;11.15;6.50;;;17.30;95.40;;;;;;5035316;28;20465;-75
2023/10/11 05:15:42;;;;;;;11.85;5.88;;;17.20;95.50;;;;;;5034145;28;20046;-76
2023/10/11 05:18:09;;;;;;;12.32;6.18;;;17.20;95.60;;;;;;5034834;28;20091;-76
2023/10/11 05:23:06;;;;;;;14.52;6.72;;;17.20;95.60;;;;;;5034521;28;20118;-76
2023/10/11 05:31:01;;;;;;;10.07;6.18;;;17.20;95.70;;;;;;5034851;28;20029;-76
2023/10/11 05:33:57;;;;;;;12.25;6.15;;;17.20;95.70;;;;;;5034566;28;20107;-76
2023/10/11 05:52:55;;;;;;;14.82;6.90;;;17.10;96.20;;;;;;5033888;28;20527;-77
2023/10/11 05:55:24;;;;;;;12.77;6.55;;;17.00;96.20;;;;;;5033904;28;20091;-78
2023/10/11 05:57:50;;;;;;;11.63;6.93;;;17.00;96.40;;;;;;5034404;28;20061;-78
2023/10/11 06:00:23;;;;;;;12.73;5.82;;;17.00;96.50;;;;;;5033850;28;20026;-79
2023/10/11 06:02:51;;;;;;;14.48;6.70;;;16.90;96.60;;;;;;5033486;28;20068;-79
2023/10/11 06:05:18;;;;;;;15.68;6.90;;;17.00;96.70;;;;;;5033814;28;20026;-82
2023/10/11 06:07:43;;;;;;;13.07;7.15;;;17.00;96.60;;;;;;5033524;28;20486;-81
2023/10/11 06:10:13;;;;;;;10.32;5.90;;;17.00;96.60;;;;;;5033702;28;20112;-81
2023/10/11 06:12:38;;;;;;;10.90;6.20;;;17.00;96.70;;;;;;5034578;28;20041;-81
2023/10/11 06:15:15;;;;;;;10.98;6.50;;;17.00;96.70;;;;;;5032997;28;20090;-81
2023/10/11 06:17:48;;;;;;;9.00;6.20;;;17.00;96.80;;;;;;5033169;28;20032;-79
2023/10/11 06:20:26;;;;;;;12.68;7.30;;;17.00;97.00;;;;;;5033593;28;20071;-79
2023/10/11 06:22:56;;;;;;;13.23;7.32;;;17.00;96.80;;;;;;5033972;28;20045;-79
2023/10/11 06:28:13;;;;;;;11.48;6.57;;;17.00;97.00;;;;;;5033935;28;20036;-81
2023/10/11 06:30:47;;;;;;;;;;;17.00;97.10;;;;;;5034417;28;20128;-81
2023/10/11 06:33:13;;;;;;;15.90;7.60;;;17.00;97.20;;;;;;5033660;28;19914;-79
2023/10/11 06:35:44;;;;;;;15.68;7.50;;;17.00;97.20;;;;;;5033544;28;20037;-77
2023/10/11 06:38:12;;;;;;;15.73;7.28;;;17.00;97.30;;;;;;5032046;28;20041;-80
2023/10/11 06:40:47;;;;;;;14.70;7.35;;;17.00;97.50;;;;;;5032114;28;20121;-79
2023/10/11 06:43:13;;;;;;;11.70;7.25;;;17.00;97.40;;;;;;5032326;28;20036;-79
2023/10/11 06:45:42;;;;;;;13.70;7.13;;;17.00;97.50;;;;;;5033154;28;20486;-79
2023/10/11 06:48:09;;;;;;;16.27;8.85;;;17.00;97.70;;;;;;5033382;28;20033;-78
2023/10/11 06:50:38;;;;;;;11.80;7.10;;;17.00;97.70;;;;;;5033418;28;20041;-81
2023/10/11 06:53:07;;;;;;;15.10;7.63;;;17.00;97.80;;;;;;5034110;28;20115;-81
2023/10/11 06:55:39;;;;;;;12.85;7.82;;;17.00;97.80;;;;;;5032426;28;20155;-80
2023/10/11 06:58:16;;;;;;;13.55;7.00;;;17.00;98.00;;;;;;5033992;28;20030;-80
2023/10/11 07:00:48;;;;;;;14.55;7.97;;;17.00;98.00;;;;;;5032221;28;20134;-80
2023/10/11 07:06:10;;;;;;;17.17;8.82;;;17.00;98.20;;;;;;5032567;28;20059;-80
2023/10/11 07:08:35;;;;;;;17.25;8.60;;;17.00;98.20;;;;;;5031908;28;20033;-80
2023/10/11 07:11:17;;;;;;;15.45;8.30;;;17.00;98.40;;;;;;5033308;28;20037;-80
2023/10/11 07:13:51;;;;;;;14.70;8.85;;;17.00;98.30;;;;;;5033463;28;20030;-80
2023/10/11 07:16:21;;;;;;;16.98;8.80;;;17.10;98.50;;;;;;5038010;28;20171;-81
2023/10/11 07:18:48;;;;;;;14.35;8.02;;;17.00;98.60;;;;;;5036762;28;20034;-81
2023/10/11 07:21:19;;;;;;;15.85;8.48;;;17.00;98.70;;;;;;5037436;28;20041;-82
2023/10/11 07:26:23;;;;;;;14.68;8.95;;;17.00;98.90;;;;;;5037487;28;20088;-79
2023/10/11 07:28:53;;;;;;;13.90;8.88;;;17.00;99.00;;;;;;5037088;28;20052;-82
2023/10/11 07:31:32;;;;;;;20.27;9.70;;;17.10;99.10;;;;;;5037411;28;20041;-80
2023/10/11 07:33:58;;;;;;;18.20;9.75;;;17.10;99.20;;;;;;5037015;28;20029;-79
2023/10/11 07:36:25;;;;;;;17.02;9.23;;;17.10;99.30;;;;;;5037975;28;20454;-83
2023/10/11 07:38:54;;;;;;;18.10;9.57;;;17.10;99.40;;;;;;5036255;28;20132;-84
2023/10/11 07:41:28;;;;;;;18.15;9.77;;;17.20;99.50;;;;;;5037506;28;20450;-83
2023/10/11 07:43:56;;;;;;;14.10;9.10;;;17.20;99.50;;;;;;5036372;28;20029;-79
2023/10/11 07:46:22;;;;;;;19.48;10.38;;;17.20;99.60;;;;;;5034981;28;20461;-81
2023/10/11 07:48:48;;;;;;;17.88;9.73;;;17.20;99.70;;;;;;5035919;28;20025;-80
2023/10/11 07:51:14;;;;;;;15.85;9.40;;;17.20;99.70;;;;;;5036326;28;20034;-80
2023/10/11 07:53:41;;;;;;;17.58;9.65;;;17.20;99.70;;;;;;5034934;28;20036;-79
2023/10/11 07:56:08;;;;;;;19.83;11.07;;;17.20;99.80;;;;;;5036232;28;20042;-80
2023/10/11 07:58:35;;;;;;;16.65;10.38;;;17.20;99.90;;;;;;5034692;28;20034;-79
2023/10/11 08:01:14;;;;;;;21.63;10.82;;;17.20;99.90;;;;;;5036389;28;20025;-76
2023/10/11 08:03:44;;;;;;;18.83;11.07;;;17.20;99.90;;;;;;5036357;28;20034;-76
2023/10/11 08:06:24;;;;;;;14.90;9.35;;;17.20;99.90;;;;;;5035170;28;20450;-76
2023/10/11 08:08:51;;;;;;;23.90;11.25;;;17.20;99.90;;;;;;5036280;28;20038;-77
2023/10/11 08:11:20;;;;;;;22.77;11.10;;;17.30;99.90;;;;;;5034354;28;20462;-76
2023/10/11 08:13:48;;;;;;;21.08;10.60;;;17.30;99.90;;;;;;5050855;28;20110;-77
2023/10/11 08:16:18;;;;;;;18.30;11.07;;;17.30;99.90;;;;;;5036038;28;20036;-79
2023/10/11 08:18:48;;;;;;;20.90;11.32;;;17.30;99.90;;;;;;5036714;28;20115;-81
2023/10/11 08:21:15;;;;;;;24.80;12.52;;;17.30;99.90;;;;;;5037050;28;20033;-78
2023/10/11 08:23:44;;;;;;;19.80;11.10;;;17.40;99.90;;;;;;5035208;28;20482;-78
2023/10/11 08:26:19;;;;;;;21.15;11.68;;;17.50;99.90;;;;;;5036526;28;20109;-82
2023/10/11 08:28:48;;;;;;;19.95;11.85;;;17.50;99.90;;;;;;5036795;28;20030;-78
2023/10/11 08:31:39;;;;;;;20.58;12.70;;;17.50;99.90;;;;;;5035655;28;20034;-78
2023/10/11 08:34:05;;;;;;;22.10;12.07;;;17.60;99.90;;;;;;5035451;28;20130;-77
2023/10/11 08:36:33;;;;;;;18.33;12.10;;;17.60;99.90;;;;;;5035186;28;20439;-78
2023/10/11 08:39:05;;;;;;;23.67;12.75;;;17.60;99.90;;;;;;5035241;28;20056;-78
2023/10/11 08:41:34;;;;;;;20.58;12.27;;;17.60;99.90;;;;;;5035047;28;20057;-80
2023/10/11 08:44:03;;;;;;;22.95;13.18;;;17.60;99.90;;;;;;5051042;28;20397;-78
2023/10/11 08:46:32;;;;;;;19.10;11.98;;;17.60;99.90;;;;;;5035208;28;20029;-74
2023/10/11 08:49:00;;;;;;;19.85;11.82;;;17.60;99.90;;;;;;5035167;28;20025;-78
2023/10/11 08:51:36;;;;;;;21.13;14.18;;;17.60;99.90;;;;;;5034972;28;20052;-75
2023/10/11 08:54:03;;;;;;;22.40;13.05;;;17.60;99.90;;;;;;5034759;28;20037;-74
2023/10/11 08:56:29;;;;;;;25.27;15.10;;;17.60;99.90;;;;;;5034765;28;20076;-76
2023/10/11 08:58:54;;;;;;;21.73;13.82;;;17.70;99.90;;;;;;5034853;28;20057;-73
2023/10/11 09:01:24;;;;;;;24.17;14.80;;;17.60;99.90;;;;;;5033668;28;20091;-74
2023/10/11 09:04:13;;;;;;;26.67;15.80;;;17.60;99.90;;;;;;5034728;28;20040;-74
2023/10/11 09:06:45;;;;;;;29.60;15.75;;;17.60;99.90;;;;;;5034755;28;20030;-75
2023/10/11 09:09:41;;;;;;;27.02;15.15;;;17.60;99.90;;;;;;5035181;28;20060;-74
2023/10/11 09:12:24;;;;;;;29.10;17.33;;;17.60;99.90;;;;;;5034153;28;20041;-74
2023/10/11 09:15:04;;;;;;;29.40;16.58;;;17.60;99.90;;;;;;5034690;28;20037;-75
2023/10/11 09:17:39;;;;;;;33.83;16.70;;;17.60;99.90;;;;;;5034550;28;20036;-76
2023/10/11 09:20:15;;;;;;;30.55;17.05;;;17.60;99.90;;;;;;5034998;28;20037;-75
2023/10/11 09:22:47;;;;;;;27.33;16.27;;;17.60;99.90;;;;;;5034885;28;20083;-75
2023/10/11 09:25:23;;;;;;;25.25;15.75;;;17.70;99.90;;;;;;5034320;28;20052;-74
2023/10/11 09:27:50;;;;;;;28.80;17.45;;;17.70;99.90;;;;;;5034848;28;20477;-76
2023/10/11 09:30:19;;;;;;;33.63;17.50;;;17.70;99.90;;;;;;5034566;28;20132;-79
2023/10/11 09:32:48;;;;;;;29.17;17.00;;;17.70;99.90;;;;;;5034149;28;20022;-78
2023/10/11 09:35:28;;;;;;;29.00;17.17;;;17.70;99.90;;;;;;5050053;28;20378;-79
2023/10/11 09:37:58;;;;;;;32.63;17.98;;;17.80;99.90;;;;;;5032844;28;20430;-77
2023/10/11 09:40:28;;;;;;;30.00;18.70;;;17.70;99.90;;;;;;5034606;28;20072;-80
2023/10/11 09:43:01;;;;;;;27.63;17.55;;;17.80;99.90;;;;;;5034733;28;20474;-78
2023/10/11 09:45:48;;;;;;;29.58;17.98;;;17.70;99.90;;;;;;5034615;28;20034;-77
2023/10/11 09:48:19;;;;;;;32.60;18.58;;;17.70;99.90;;;;;;5034713;28;20040;-78
2023/10/11 09:50:45;;;;;;;30.70;18.83;;;17.70;99.90;;;;;;5034181;28;20462;-79
2023/10/11 09:53:12;;;;;;;34.78;20.20;;;17.70;99.90;;;;;;5050074;28;20129;-79
2023/10/11 09:55:55;;;;;;;30.48;18.45;;;17.70;99.90;;;;;;5049970;28;20041;-75
2023/10/11 09:58:53;;;;;;;32.97;19.30;;;17.70;99.90;;;;;;5048998;28;20025;-76
2023/10/11 10:01:32;;;;;;;29.20;19.42;;;17.70;99.90;;;;;;5032760;28;20049;-77
2023/10/11 10:04:04;;;;;;;38.92;19.70;;;17.70;99.90;;;;;;5034224;28;20033;-74
2023/10/11 10:06:30;;;;;;;37.30;21.40;;;17.70;99.90;;;;;;5034531;28;20113;-77
2023/10/11 10:09:23;;;;;;;35.13;22.27;;;17.80;99.90;;;;;;5032667;28;20466;-77
2023/10/11 10:12:09;;;;;;;36.90;20.60;;;17.70;99.90;;;;;;5049505;28;20030;-78
2023/10/11 10:14:36;;;;;;;38.72;20.88;;;17.70;99.90;;;;;;5033442;28;20557;-77
2023/10/11 10:17:13;;;;;;;36.58;20.60;;;17.70;99.90;;;;;;5033477;28;20037;-76
2023/10/11 10:19:39;;;;;;;36.95;20.95;;;17.70;99.90;;;;;;5033148;28;20103;-77
2023/10/11 10:22:17;;;;;;;34.42;20.67;;;17.70;99.90;;;;;;5033550;28;20029;-77
2023/10/11 10:24:43;;;;;;;34.53;21.63;;;17.70;99.90;;;;;;5033266;28;20493;-77
2023/10/11 10:27:33;;;;;;;36.20;21.05;;;17.80;99.90;;;;;;5033411;28;20037;-78
2023/10/11 10:30:06;;;;;;;39.15;21.25;;;17.70;99.90;;;;;;5033645;28;20477;-77
2023/10/11 10:32:33;;;;;;;38.70;21.58;;;17.70;99.90;;;;;;5032166;28;20030;-77
2023/10/11 10:35:18;;;;;;;35.38;21.00;;;17.80;99.90;;;;;;5048648;28;20044;-77
2023/10/11 10:37:46;;;;;;;35.53;21.85;;;17.70;99.90;;;;;;5033302;28;20501;-77
2023/10/11 10:40:24;;;;;;;41.58;21.50;;;17.70;99.90;;;;;;5033243;28;20052;-76
2023/10/11 10:43:19;;;;;;;39.17;21.58;;;17.80;99.90;;;;;;5033615;28;20148;-77
2023/10/11 10:45:51;;;;;;;32.40;19.92;;;17.80;99.90;;;;;;5033804;28;20025;-77
2023/10/11 10:48:24;;;;;;;34.33;20.60;;;17.90;99.90;;;;;;5034063;28;20033;-76
2023/10/11 10:51:06;;;;;;;37.13;19.85;;;17.90;99.90;;;;;;5037054;28;20083;-76
2023/10/11 10:53:51;;;;;;;32.78;19.00;;;17.90;99.90;;;;;;5037244;28;20033;-76
2023/10/11 10:56:24;;;;;;;34.75;20.15;;;18.00;99.90;;;;;;5037550;28;20075;-76
2023/10/11 10:59:07;;;;;;;37.35;20.42;;;18.00;99.90;;;;;;5037708;28;20037;-76
2023/10/11 11:01:34;;;;;;;31.65;19.02;;;18.00;99.90;;;;;;5036803;28;20053;-79
2023/10/11 11:04:07;;;;;;;37.65;19.08;;;18.00;99.90;;;;;;5037300;28;20037;-75
2023/10/11 11:06:39;;;;;;;33.45;19.38;;;18.00;99.90;;;;;;5037304;28;20523;-78
2023/10/11 11:09:13;;;;;;;;;;;18.10;99.90;;;;;;5037482;28;20057;-78
2023/10/11 11:11:38;;;;;;;32.55;19.23;;;18.10;99.90;;;;;;5037474;28;19905;-78
2023/10/11 11:14:15;;;;;;;39.03;20.40;;;18.10;99.90;;;;;;5036855;28;20075;-77
2023/10/11 11:16:44;;;;;;;33.03;19.13;;;18.10;99.90;;;;;;5037351;28;20061;-81
2023/10/11 11:19:16;;;;;;;43.05;20.10;;;18.10;99.90;;;;;;5036901;28;20050;-81
2023/10/11 11:21:46;;;;;;;30.70;17.77;;;18.20;99.90;;;;;;5036955;28;20028;-79
2023/10/11 11:24:27;;;;;;;30.98;17.65;;;18.10;99.90;;;;;;5037091;28;20034;-79
2023/10/11 11:26:54;;;;;;;35.50;19.23;;;18.20;99.90;;;;;;5037163;28;20033;-77
2023/10/11 11:29:32;;;;;;;36.00;19.33;;;18.20;99.90;;;;;;5036568;28;20066;-79
2023/10/11 11:32:14;;;;;;;30.08;17.35;;;18.20;99.90;;;;;;5036596;28;20191;-79
2023/10/11 11:35:02;;;;;;;36.67;18.17;;;18.30;99.90;;;;;;5036360;28;20466;-80
2023/10/11 11:37:30;;;;;;;36.00;17.65;;;18.30;99.90;;;;;;5037192;28;20086;-76
2023/10/11 11:42:48;;;;;;;28.90;15.52;;;18.30;99.90;;;;;;5036136;28;20044;-77
2023/10/11 11:45:15;;;;;;;29.73;14.15;;;18.40;99.90;;;;;;5035833;28;20144;-77
2023/10/11 11:47:55;;;;;;;28.10;15.02;;;18.40;99.90;;;;;;5036777;28;20520;-76
2023/10/11 11:50:23;;;;;;;25.27;14.25;;;18.40;99.90;;;;;;5036153;28;20455;-77
2023/10/11 11:52:48;;;;;;;27.63;13.57;;;18.40;99.90;;;;;;5035948;28;20108;-77
2023/10/11 11:55:16;;;;;;;25.15;13.00;;;18.50;99.90;;;;;;5036019;28;20117;-77
2023/10/11 11:57:42;;;;;;;20.85;12.07;;;18.50;99.90;;;;;;5034491;28;20458;-76
2023/10/11 12:03:08;;;;;;;21.33;11.85;;;18.60;99.90;;;;;;5034489;28;20041;-77
2023/10/11 12:05:40;;;;;;;23.40;11.68;;;18.70;99.90;;;;;;5035789;28;20034;-78
2023/10/11 12:08:20;;;;;;;20.83;11.13;;;18.70;99.90;;;;;;5035384;28;20029;-77
2023/10/11 12:10:49;;;;;;;22.73;11.02;;;18.70;99.90;;;;;;5035823;28;20039;-78
2023/10/11 12:13:22;;;;;;;24.83;10.70;;;18.80;99.90;;;;;;5034459;28;20383;-78
2023/10/11 12:15:54;;;;;;;27.05;11.55;;;18.80;99.90;;;;;;5035503;28;20040;-78
2023/10/11 12:18:32;;;;;;;23.03;10.47;;;18.80;99.90;;;;;;5036372;28;20071;-79
2023/10/11 12:21:00;;;;;;;23.15;10.98;;;18.90;99.90;;;;;;5036245;28;20273;-78
2023/10/11 12:23:25;;;;;;;20.50;9.63;;;18.80;99.90;;;;;;5034976;28;20075;-77
2023/10/11 12:25:51;;;;;;;23.38;10.75;;;18.80;99.90;;;;;;5035547;28;20034;-78
2023/10/11 12:28:18;;;;;;;20.45;9.95;;;18.80;99.90;;;;;;5035645;28;20526;-77
2023/10/11 12:30:45;;;;;;;20.88;9.98;;;18.80;99.90;;;;;;5035731;28;20079;-77
2023/10/11 12:33:11;;;;;;;21.75;11.07;;;18.80;99.90;;;;;;5035122;28;20038;-78
2023/10/11 12:35:41;;;;;;;21.70;10.45;;;18.80;99.90;;;;;;5035442;28;20026;-77
2023/10/11 12:38:12;;;;;;;20.15;10.15;;;18.80;99.90;;;;;;5035445;28;20033;-78
2023/10/11 12:40:38;;;;;;;19.08;10.05;;;18.90;99.90;;;;;;5035709;28;20115;-76
2023/10/11 12:43:07;;;;;;;21.60;10.35;;;18.80;99.90;;;;;;5035230;28;20037;-78
2023/10/11 12:45:34;;;;;;;24.67;9.57;;;18.90;99.90;;;;;;5050489;28;20112;-78
2023/10/11 12:48:06;;;;;;;17.67;9.23;;;18.90;99.90;;;;;;5035379;28;20116;-76
2023/10/11 12:50:37;;;;;;;17.85;9.68;;;18.80;99.90;;;;;;5035446;28;20033;-75
2023/10/11 12:53:13;;;;;;;21.13;10.32;;;18.90;99.90;;;;;;5035051;28;20041;-76
2023/10/11 12:55:45;;;;;;;20.27;10.20;;;18.90;99.90;;;;;;5050229;28;20037;-79
2023/10/11 12:58:12;;;;;;;19.52;9.82;;;18.90;99.90;;;;;;5034288;28;20534;-78
2023/10/11 13:01:05;;;;;;;20.17;10.20;;;18.90;99.90;;;;;;5034839;28;20092;-77
2023/10/11 13:03:29;;;;;;;20.48;11.25;;;18.90;99.90;;;;;;5035252;28;20041;-77
2023/10/11 13:05:55;;;;;;;23.70;11.95;;;18.90;99.90;;;;;;5035044;28;20116;-77
2023/10/11 13:08:28;;;;;;;19.77;11.93;;;18.80;99.90;;;;;;5034627;28;20030;-78
2023/10/11 13:10:54;;;;;;;17.00;11.10;;;18.80;99.90;;;;;;5035147;28;20112;-76
2023/10/11 13:13:23;;;;;;;24.80;13.43;;;18.90;99.90;;;;;;5033846;28;20117;-77
2023/10/11 13:16:03;;;;;;;23.92;13.75;;;18.80;99.90;;;;;;5034341;28;20120;-77
2023/10/11 13:18:33;;;;;;;25.55;13.65;;;18.90;99.90;;;;;;5050190;28;20037;-75
2023/10/11 13:21:01;;;;;;;30.60;14.95;;;18.90;99.90;;;;;;5033999;28;20124;-76
2023/10/11 13:23:30;;;;;;;28.02;15.60;;;18.90;99.90;;;;;;5034509;28;20045;-79
2023/10/11 13:26:08;;;;;;;23.80;13.90;;;18.90;99.90;;;;;;5034705;28;20029;-77
2023/10/11 13:28:35;;;;;;;31.77;17.63;;;18.90;99.90;;;;;;5034584;28;20117;-76
2023/10/11 13:31:02;;;;;;;27.30;15.63;;;18.90;99.90;;;;;;5034510;28;20037;-76
2023/10/11 13:33:31;;;;;;;27.48;16.45;;;18.90;99.90;;;;;;5034295;28;20029;-76
2023/10/11 13:36:01;;;;;;;23.15;14.07;;;18.90;99.90;;;;;;5034208;28;20067;-76
2023/10/11 13:38:30;;;;;;;24.83;15.82;;;18.90;99.90;;;;;;5034768;28;20025;-76
2023/10/11 13:40:58;;;;;;;26.45;16.60;;;18.90;99.90;;;;;;5033820;28;20061;-76
2023/10/11 13:43:24;;;;;;;27.10;16.83;;;18.90;99.90;;;;;;5033748;28;20056;-79
2023/10/11 13:45:57;;;;;;;32.45;18.92;;;18.90;99.90;;;;;;5034043;28;20083;-78
2023/10/11 13:48:39;;;;;;;30.23;18.85;;;18.90;99.90;;;;;;5034144;28;20026;-75
2023/10/11 13:51:18;;;;;;;30.73;18.27;;;18.90;99.90;;;;;;5034553;28;20029;-77
2023/10/11 13:53:46;;;;;;;29.17;18.58;;;18.90;99.90;;;;;;5033826;28;20030;-75